sensor_id;sensor_type;location;lat;lon;timestamp;P1;durP1;ratioP1;P2;durP2;ratioP2
20170;SDS011;10245;51.344;6.620;2023-09-30T00:01:40;11.50;;;6.60;;
20170;SDS011;10245;51.344;6.620;2023-09-30T00:04:06;14.85;;;7.03;;
20170;SDS011;10245;51.344;6.620;2023-09-30T00:06:30;16.95;;;8.00;;
20170;SDS011;10245;51.344;6.620;2023-09-30T00:08:54;18.08;;;8.02;;
20170;SDS011;10245;51.344;6.620;2023-09-30T00:11:17;12.23;;;6.88;;
20170;SDS011;10245;51.344;6.620;2023-09-30T00:13:41;15.48;;;7.63;;
20170;SDS011;10245;51.344;6.620;2023-09-30T00:16:04;16.80;;;6.88;;
20170;SDS011;10245;51.344;6.620;2023-09-30T00:18:27;13.07;;;7.25;;
20170;SDS011;10245;51.344;6.620;2023-09-30T00:20:52;13.80;;;6.93;;
20170;SDS011;10245;51.344;6.620;2023-09-30T00:23:16;16.55;;;7.70;;
20170;SDS011;10245;51.344;6.620;2023-09-30T00:25:42;14.73;;;7.88;;
20170;SDS011;10245;51.344;6.620;2023-09-30T00:28:05;15.90;;;7.55;;
20170;SDS011;10245;51.344;6.620;2023-09-30T00:30:29;15.23;;;7.75;;
20170;SDS011;10245;51.344;6.620;2023-09-30T00:32:53;16.15;;;7.25;;
20170;SDS011;10245;51.344;6.620;2023-09-30T00:35:17;15.45;;;8.00;;
20170;SDS011;10245;51.344;6.620;2023-09-30T00:37:42;16.92;;;8.30;;
20170;SDS011;10245;51.344;6.620;2023-09-30T00:40:05;19.70;;;8.23;;
20170;SDS011;10245;51.344;6.620;2023-09-30T00:42:33;16.20;;;8.07;;
20170;SDS011;10245;51.344;6.620;2023-09-30T00:44:57;14.48;;;7.72;;
20170;SDS011;10245;51.344;6.620;2023-09-30T00:47:20;14.02;;;7.55;;
20170;SDS011;10245;51.344;6.620;2023-09-30T00:49:45;16.00;;;8.15;;
20170;SDS011;10245;51.344;6.620;2023-09-30T00:52:08;18.10;;;8.52;;
20170;SDS011;10245;51.344;6.620;2023-09-30T00:54:34;14.68;;;7.60;;
20170;SDS011;10245;51.344;6.620;2023-09-30T00:56:59;16.30;;;7.65;;
20170;SDS011;10245;51.344;6.620;2023-09-30T00:59:23;14.63;;;8.15;;
20170;SDS011;10245;51.344;6.620;2023-09-30T01:01:48;20.10;;;7.80;;
20170;SDS011;10245;51.344;6.620;2023-09-30T01:04:11;16.90;;;8.05;;
20170;SDS011;10245;51.344;6.620;2023-09-30T01:06:36;14.77;;;8.07;;
20170;SDS011;10245;51.344;6.620;2023-09-30T01:09:00;15.43;;;7.38;;
20170;SDS011;10245;51.344;6.620;2023-09-30T01:11:24;14.57;;;7.72;;
20170;SDS011;10245;51.344;6.620;2023-09-30T01:13:48;17.98;;;7.45;;
20170;SDS011;10245;51.344;6.620;2023-09-30T01:16:13;20.05;;;8.27;;
20170;SDS011;10245;51.344;6.620;2023-09-30T01:18:37;15.95;;;7.90;;
20170;SDS011;10245;51.344;6.620;2023-09-30T01:21:05;20.55;;;9.18;;
20170;SDS011;10245;51.344;6.620;2023-09-30T01:23:31;19.55;;;8.48;;
20170;SDS011;10245;51.344;6.620;2023-09-30T01:25:54;15.85;;;7.78;;
20170;SDS011;10245;51.344;6.620;2023-09-30T01:28:17;19.08;;;7.43;;
20170;SDS011;10245;51.344;6.620;2023-09-30T01:30:41;14.45;;;8.00;;
20170;SDS011;10245;51.344;6.620;2023-09-30T01:33:05;18.83;;;8.20;;
20170;SDS011;10245;51.344;6.620;2023-09-30T01:35:29;16.27;;;7.38;;
20170;SDS011;10245;51.344;6.620;2023-09-30T01:37:52;17.67;;;8.15;;
20170;SDS011;10245;51.344;6.620;2023-09-30T01:40:17;12.07;;;7.43;;
20170;SDS011;10245;51.344;6.620;2023-09-30T01:42:41;16.75;;;7.88;;
20170;SDS011;10245;51.344;6.620;2023-09-30T01:45:04;14.60;;;7.10;;
20170;SDS011;10245;51.344;6.620;2023-09-30T01:47:29;17.13;;;7.55;;
20170;SDS011;10245;51.344;6.620;2023-09-30T01:49:52;15.50;;;8.02;;
20170;SDS011;10245;51.344;6.620;2023-09-30T01:52:16;16.95;;;7.85;;
20170;SDS011;10245;51.344;6.620;2023-09-30T01:54:40;14.27;;;7.20;;
20170;SDS011;10245;51.344;6.620;2023-09-30T01:57:05;15.68;;;6.97;;
20170;SDS011;10245;51.344;6.620;2023-09-30T01:59:29;14.48;;;6.47;;
20170;SDS011;10245;51.344;6.620;2023-09-30T02:01:52;11.07;;;6.30;;
20170;SDS011;10245;51.344;6.620;2023-09-30T02:04:15;14.95;;;7.13;;
20170;SDS011;10245;51.344;6.620;2023-09-30T02:06:39;14.55;;;6.55;;
20170;SDS011;10245;51.344;6.620;2023-09-30T02:09:02;14.68;;;7.28;;
20170;SDS011;10245;51.344;6.620;2023-09-30T02:11:29;16.52;;;7.30;;
20170;SDS011;10245;51.344;6.620;2023-09-30T02:13:54;15.73;;;6.70;;
20170;SDS011;10245;51.344;6.620;2023-09-30T02:16:18;13.85;;;6.68;;
20170;SDS011;10245;51.344;6.620;2023-09-30T02:18:42;14.68;;;7.20;;
20170;SDS011;10245;51.344;6.620;2023-09-30T02:21:07;11.07;;;6.38;;
20170;SDS011;10245;51.344;6.620;2023-09-30T02:23:31;15.98;;;7.00;;
20170;SDS011;10245;51.344;6.620;2023-09-30T02:25:55;13.05;;;6.22;;
20170;SDS011;10245;51.344;6.620;2023-09-30T02:28:18;13.57;;;6.43;;
20170;SDS011;10245;51.344;6.620;2023-09-30T02:30:43;14.93;;;6.85;;
20170;SDS011;10245;51.344;6.620;2023-09-30T02:33:06;12.75;;;6.22;;
20170;SDS011;10245;51.344;6.620;2023-09-30T02:35:29;11.60;;;6.78;;
20170;SDS011;10245;51.344;6.620;2023-09-30T02:37:53;12.13;;;6.25;;
20170;SDS011;10245;51.344;6.620;2023-09-30T02:40:17;10.20;;;5.88;;
20170;SDS011;10245;51.344;6.620;2023-09-30T02:42:41;12.80;;;6.15;;
20170;SDS011;10245;51.344;6.620;2023-09-30T02:45:05;12.32;;;6.07;;
20170;SDS011;10245;51.344;6.620;2023-09-30T02:47:32;12.80;;;6.18;;
20170;SDS011;10245;51.344;6.620;2023-09-30T02:49:56;10.70;;;5.80;;
20170;SDS011;10245;51.344;6.620;2023-09-30T02:52:20;16.52;;;6.57;;
20170;SDS011;10245;51.344;6.620;2023-09-30T02:54:43;10.25;;;5.88;;
20170;SDS011;10245;51.344;6.620;2023-09-30T02:57:07;12.38;;;6.25;;
20170;SDS011;10245;51.344;6.620;2023-09-30T02:59:32;13.07;;;6.10;;
20170;SDS011;10245;51.344;6.620;2023-09-30T03:01:55;14.25;;;6.38;;
20170;SDS011;10245;51.344;6.620;2023-09-30T03:04:20;13.85;;;6.15;;
20170;SDS011;10245;51.344;6.620;2023-09-30T03:06:45;13.07;;;6.57;;
20170;SDS011;10245;51.344;6.620;2023-09-30T03:09:11;12.57;;;6.50;;
20170;SDS011;10245;51.344;6.620;2023-09-30T03:11:36;17.80;;;7.18;;
20170;SDS011;10245;51.344;6.620;2023-09-30T03:13:59;14.63;;;5.90;;
20170;SDS011;10245;51.344;6.620;2023-09-30T03:16:23;17.80;;;7.10;;
20170;SDS011;10245;51.344;6.620;2023-09-30T03:18:46;12.23;;;7.03;;
20170;SDS011;10245;51.344;6.620;2023-09-30T03:21:14;12.32;;;6.45;;
20170;SDS011;10245;51.344;6.620;2023-09-30T03:23:37;12.45;;;6.38;;
20170;SDS011;10245;51.344;6.620;2023-09-30T03:26:01;14.32;;;7.00;;
20170;SDS011;10245;51.344;6.620;2023-09-30T03:28:24;15.43;;;7.15;;
20170;SDS011;10245;51.344;6.620;2023-09-30T03:30:47;13.82;;;7.15;;
20170;SDS011;10245;51.344;6.620;2023-09-30T03:33:11;13.15;;;7.05;;
20170;SDS011;10245;51.344;6.620;2023-09-30T03:35:34;15.93;;;7.97;;
20170;SDS011;10245;51.344;6.620;2023-09-30T03:37:59;13.02;;;6.28;;
20170;SDS011;10245;51.344;6.620;2023-09-30T03:40:23;13.30;;;6.30;;
20170;SDS011;10245;51.344;6.620;2023-09-30T03:42:50;12.55;;;6.75;;
20170;SDS011;10245;51.344;6.620;2023-09-30T03:45:13;18.02;;;6.85;;
20170;SDS011;10245;51.344;6.620;2023-09-30T03:50:23;15.10;;;6.45;;
20170;SDS011;10245;51.344;6.620;2023-09-30T03:52:47;14.45;;;6.45;;
20170;SDS011;10245;51.344;6.620;2023-09-30T03:55:12;14.82;;;6.63;;
20170;SDS011;10245;51.344;6.620;2023-09-30T03:57:37;12.23;;;6.10;;
20170;SDS011;10245;51.344;6.620;2023-09-30T04:00:01;13.35;;;6.38;;
20170;SDS011;10245;51.344;6.620;2023-09-30T04:02:32;15.65;;;7.05;;
20170;SDS011;10245;51.344;6.620;2023-09-30T04:04:55;15.52;;;6.72;;
20170;SDS011;10245;51.344;6.620;2023-09-30T04:07:20;12.90;;;6.55;;
20170;SDS011;10245;51.344;6.620;2023-09-30T04:09:44;16.73;;;7.00;;
20170;SDS011;10245;51.344;6.620;2023-09-30T04:12:09;14.02;;;6.57;;
20170;SDS011;10245;51.344;6.620;2023-09-30T04:14:33;11.60;;;6.85;;
20170;SDS011;10245;51.344;6.620;2023-09-30T04:16:56;17.45;;;7.55;;
20170;SDS011;10245;51.344;6.620;2023-09-30T04:19:19;11.30;;;6.57;;
20170;SDS011;10245;51.344;6.620;2023-09-30T04:21:43;13.68;;;6.85;;
20170;SDS011;10245;51.344;6.620;2023-09-30T04:24:07;13.15;;;7.40;;
20170;SDS011;10245;51.344;6.620;2023-09-30T04:26:30;12.90;;;6.88;;
20170;SDS011;10245;51.344;6.620;2023-09-30T04:28:55;15.18;;;7.47;;
20170;SDS011;10245;51.344;6.620;2023-09-30T04:31:18;19.77;;;7.18;;
20170;SDS011;10245;51.344;6.620;2023-09-30T04:33:43;14.13;;;7.57;;
20170;SDS011;10245;51.344;6.620;2023-09-30T04:36:08;8.95;;;5.97;;
20170;SDS011;10245;51.344;6.620;2023-09-30T04:38:32;15.63;;;7.30;;
20170;SDS011;10245;51.344;6.620;2023-09-30T04:40:55;12.18;;;6.90;;
20170;SDS011;10245;51.344;6.620;2023-09-30T04:43:19;17.70;;;7.25;;
20170;SDS011;10245;51.344;6.620;2023-09-30T04:45:44;14.45;;;7.00;;
20170;SDS011;10245;51.344;6.620;2023-09-30T04:48:08;15.05;;;7.25;;
20170;SDS011;10245;51.344;6.620;2023-09-30T04:50:31;13.23;;;6.60;;
20170;SDS011;10245;51.344;6.620;2023-09-30T04:52:55;10.65;;;6.68;;
20170;SDS011;10245;51.344;6.620;2023-09-30T04:55:20;13.13;;;6.53;;
20170;SDS011;10245;51.344;6.620;2023-09-30T04:57:43;13.38;;;6.70;;
20170;SDS011;10245;51.344;6.620;2023-09-30T05:00:08;9.77;;;6.13;;
20170;SDS011;10245;51.344;6.620;2023-09-30T05:02:34;10.75;;;6.75;;
20170;SDS011;10245;51.344;6.620;2023-09-30T05:04:58;10.43;;;6.10;;
20170;SDS011;10245;51.344;6.620;2023-09-30T05:07:21;9.75;;;5.97;;
20170;SDS011;10245;51.344;6.620;2023-09-30T05:09:44;9.02;;;5.80;;
20170;SDS011;10245;51.344;6.620;2023-09-30T05:12:08;10.70;;;5.85;;
20170;SDS011;10245;51.344;6.620;2023-09-30T05:14:32;11.82;;;6.25;;
20170;SDS011;10245;51.344;6.620;2023-09-30T05:16:55;13.63;;;7.15;;
20170;SDS011;10245;51.344;6.620;2023-09-30T05:19:20;13.35;;;6.78;;
20170;SDS011;10245;51.344;6.620;2023-09-30T05:21:43;10.77;;;6.70;;
20170;SDS011;10245;51.344;6.620;2023-09-30T05:24:07;10.93;;;6.97;;
20170;SDS011;10245;51.344;6.620;2023-09-30T05:26:32;12.30;;;7.40;;
20170;SDS011;10245;51.344;6.620;2023-09-30T05:28:56;11.23;;;7.10;;
20170;SDS011;10245;51.344;6.620;2023-09-30T05:31:20;11.50;;;7.60;;
20170;SDS011;10245;51.344;6.620;2023-09-30T05:33:44;17.02;;;7.68;;
20170;SDS011;10245;51.344;6.620;2023-09-30T05:36:08;10.02;;;7.10;;
20170;SDS011;10245;51.344;6.620;2023-09-30T05:38:35;17.02;;;8.02;;
20170;SDS011;10245;51.344;6.620;2023-09-30T05:40:58;11.90;;;7.10;;
20170;SDS011;10245;51.344;6.620;2023-09-30T05:43:22;16.23;;;8.07;;
20170;SDS011;10245;51.344;6.620;2023-09-30T05:45:45;17.20;;;8.75;;
20170;SDS011;10245;51.344;6.620;2023-09-30T05:48:16;13.73;;;8.02;;
20170;SDS011;10245;51.344;6.620;2023-09-30T05:50:39;17.13;;;8.20;;
20170;SDS011;10245;51.344;6.620;2023-09-30T05:53:05;12.25;;;7.43;;
20170;SDS011;10245;51.344;6.620;2023-09-30T05:55:28;21.52;;;10.52;;
20170;SDS011;10245;51.344;6.620;2023-09-30T05:57:52;25.83;;;11.88;;
20170;SDS011;10245;51.344;6.620;2023-09-30T06:00:16;19.27;;;9.35;;
20170;SDS011;10245;51.344;6.620;2023-09-30T06:02:43;14.95;;;8.80;;
20170;SDS011;10245;51.344;6.620;2023-09-30T06:05:08;18.08;;;8.90;;
20170;SDS011;10245;51.344;6.620;2023-09-30T06:07:32;21.52;;;10.07;;
20170;SDS011;10245;51.344;6.620;2023-09-30T06:09:57;16.88;;;9.63;;
20170;SDS011;10245;51.344;6.620;2023-09-30T06:12:24;14.73;;;8.40;;
20170;SDS011;10245;51.344;6.620;2023-09-30T06:14:47;20.90;;;8.85;;
20170;SDS011;10245;51.344;6.620;2023-09-30T06:17:12;13.95;;;8.55;;
20170;SDS011;10245;51.344;6.620;2023-09-30T06:19:36;15.30;;;8.30;;
20170;SDS011;10245;51.344;6.620;2023-09-30T06:21:59;16.52;;;9.30;;
20170;SDS011;10245;51.344;6.620;2023-09-30T06:24:25;18.75;;;9.85;;
20170;SDS011;10245;51.344;6.620;2023-09-30T06:26:50;39.28;;;14.10;;
20170;SDS011;10245;51.344;6.620;2023-09-30T06:29:13;22.88;;;11.25;;
20170;SDS011;10245;51.344;6.620;2023-09-30T06:31:37;21.90;;;11.18;;
20170;SDS011;10245;51.344;6.620;2023-09-30T06:34:01;20.83;;;10.75;;
20170;SDS011;10245;51.344;6.620;2023-09-30T06:36:26;18.48;;;10.77;;
20170;SDS011;10245;51.344;6.620;2023-09-30T06:38:49;21.58;;;11.10;;
20170;SDS011;10245;51.344;6.620;2023-09-30T06:41:16;18.92;;;10.82;;
20170;SDS011;10245;51.344;6.620;2023-09-30T06:43:41;22.92;;;10.40;;
20170;SDS011;10245;51.344;6.620;2023-09-30T06:46:07;23.80;;;12.02;;
20170;SDS011;10245;51.344;6.620;2023-09-30T06:48:31;23.08;;;12.80;;
20170;SDS011;10245;51.344;6.620;2023-09-30T06:50:54;19.27;;;12.30;;
20170;SDS011;10245;51.344;6.620;2023-09-30T06:53:20;18.70;;;12.07;;
20170;SDS011;10245;51.344;6.620;2023-09-30T06:55:45;23.50;;;13.25;;
20170;SDS011;10245;51.344;6.620;2023-09-30T06:58:08;29.33;;;15.43;;
20170;SDS011;10245;51.344;6.620;2023-09-30T07:00:33;25.42;;;14.68;;
20170;SDS011;10245;51.344;6.620;2023-09-30T07:02:58;31.70;;;16.40;;
20170;SDS011;10245;51.344;6.620;2023-09-30T07:05:22;31.17;;;16.08;;
20170;SDS011;10245;51.344;6.620;2023-09-30T07:07:46;30.77;;;17.55;;
20170;SDS011;10245;51.344;6.620;2023-09-30T07:10:09;28.20;;;17.75;;
20170;SDS011;10245;51.344;6.620;2023-09-30T07:12:36;38.92;;;18.90;;
20170;SDS011;10245;51.344;6.620;2023-09-30T07:15:00;30.90;;;18.55;;
20170;SDS011;10245;51.344;6.620;2023-09-30T07:17:25;39.10;;;22.08;;
20170;SDS011;10245;51.344;6.620;2023-09-30T07:19:49;38.08;;;20.90;;
20170;SDS011;10245;51.344;6.620;2023-09-30T07:22:12;45.38;;;22.73;;
20170;SDS011;10245;51.344;6.620;2023-09-30T07:24:37;43.60;;;22.00;;
20170;SDS011;10245;51.344;6.620;2023-09-30T07:27:00;43.13;;;22.27;;
20170;SDS011;10245;51.344;6.620;2023-09-30T07:29:34;39.13;;;21.00;;
20170;SDS011;10245;51.344;6.620;2023-09-30T07:31:57;41.67;;;22.95;;
20170;SDS011;10245;51.344;6.620;2023-09-30T07:34:22;40.30;;;21.52;;
20170;SDS011;10245;51.344;6.620;2023-09-30T07:36:46;39.80;;;22.92;;
20170;SDS011;10245;51.344;6.620;2023-09-30T07:39:09;39.05;;;22.77;;
20170;SDS011;10245;51.344;6.620;2023-09-30T07:41:34;40.25;;;23.33;;
20170;SDS011;10245;51.344;6.620;2023-09-30T07:43:58;38.50;;;22.23;;
20170;SDS011;10245;51.344;6.620;2023-09-30T07:46:21;38.92;;;23.60;;
20170;SDS011;10245;51.344;6.620;2023-09-30T07:48:45;41.55;;;24.25;;
20170;SDS011;10245;51.344;6.620;2023-09-30T07:51:10;39.78;;;22.52;;
20170;SDS011;10245;51.344;6.620;2023-09-30T07:53:34;36.78;;;21.42;;
20170;SDS011;10245;51.344;6.620;2023-09-30T07:55:57;36.80;;;22.35;;
20170;SDS011;10245;51.344;6.620;2023-09-30T07:58:21;41.92;;;23.00;;
20170;SDS011;10245;51.344;6.620;2023-09-30T08:00:44;36.22;;;21.90;;
20170;SDS011;10245;51.344;6.620;2023-09-30T08:03:07;35.72;;;22.45;;
20170;SDS011;10245;51.344;6.620;2023-09-30T08:05:31;37.45;;;20.92;;
20170;SDS011;10245;51.344;6.620;2023-09-30T08:07:55;34.95;;;20.92;;
20170;SDS011;10245;51.344;6.620;2023-09-30T08:10:19;32.47;;;19.95;;
20170;SDS011;10245;51.344;6.620;2023-09-30T08:12:42;31.20;;;19.63;;
20170;SDS011;10245;51.344;6.620;2023-09-30T08:15:08;27.08;;;18.13;;
20170;SDS011;10245;51.344;6.620;2023-09-30T08:17:33;29.75;;;18.98;;
20170;SDS011;10245;51.344;6.620;2023-09-30T08:19:57;32.17;;;20.10;;
20170;SDS011;10245;51.344;6.620;2023-09-30T08:22:20;32.92;;;19.30;;
20170;SDS011;10245;51.344;6.620;2023-09-30T08:24:48;33.67;;;20.00;;
20170;SDS011;10245;51.344;6.620;2023-09-30T08:27:12;34.00;;;18.95;;
20170;SDS011;10245;51.344;6.620;2023-09-30T08:29:35;30.08;;;18.50;;
20170;SDS011;10245;51.344;6.620;2023-09-30T08:31:59;29.48;;;18.60;;
20170;SDS011;10245;51.344;6.620;2023-09-30T08:34:22;27.83;;;16.73;;
20170;SDS011;10245;51.344;6.620;2023-09-30T08:36:45;27.63;;;16.75;;
20170;SDS011;10245;51.344;6.620;2023-09-30T08:39:08;25.00;;;16.75;;
20170;SDS011;10245;51.344;6.620;2023-09-30T08:41:33;25.23;;;16.55;;
20170;SDS011;10245;51.344;6.620;2023-09-30T08:43:58;25.45;;;15.98;;
20170;SDS011;10245;51.344;6.620;2023-09-30T08:46:24;24.13;;;16.80;;
20170;SDS011;10245;51.344;6.620;2023-09-30T08:48:48;25.80;;;15.75;;
20170;SDS011;10245;51.344;6.620;2023-09-30T08:51:12;24.05;;;15.93;;
20170;SDS011;10245;51.344;6.620;2023-09-30T08:53:35;23.65;;;14.18;;
20170;SDS011;10245;51.344;6.620;2023-09-30T08:55:58;25.20;;;15.57;;
20170;SDS011;10245;51.344;6.620;2023-09-30T08:58:27;23.33;;;14.35;;
20170;SDS011;10245;51.344;6.620;2023-09-30T09:00:51;24.27;;;14.60;;
20170;SDS011;10245;51.344;6.620;2023-09-30T09:03:15;27.30;;;14.77;;
20170;SDS011;10245;51.344;6.620;2023-09-30T09:05:38;24.95;;;14.75;;
20170;SDS011;10245;51.344;6.620;2023-09-30T09:08:02;23.67;;;14.20;;
20170;SDS011;10245;51.344;6.620;2023-09-30T09:10:26;22.40;;;13.80;;
20170;SDS011;10245;51.344;6.620;2023-09-30T09:12:54;20.52;;;13.55;;
20170;SDS011;10245;51.344;6.620;2023-09-30T09:15:24;21.98;;;13.77;;
20170;SDS011;10245;51.344;6.620;2023-09-30T09:17:50;21.88;;;14.10;;
20170;SDS011;10245;51.344;6.620;2023-09-30T09:20:16;19.10;;;12.32;;
20170;SDS011;10245;51.344;6.620;2023-09-30T09:22:43;18.20;;;12.40;;
20170;SDS011;10245;51.344;6.620;2023-09-30T09:25:07;20.63;;;12.38;;
20170;SDS011;10245;51.344;6.620;2023-09-30T09:27:32;20.05;;;11.77;;
20170;SDS011;10245;51.344;6.620;2023-09-30T09:29:57;18.20;;;12.32;;
20170;SDS011;10245;51.344;6.620;2023-09-30T09:32:37;19.00;;;12.40;;
20170;SDS011;10245;51.344;6.620;2023-09-30T09:35:01;17.58;;;10.95;;
20170;SDS011;10245;51.344;6.620;2023-09-30T09:37:24;19.77;;;12.70;;
20170;SDS011;10245;51.344;6.620;2023-09-30T09:39:48;19.55;;;11.93;;
20170;SDS011;10245;51.344;6.620;2023-09-30T09:42:15;20.10;;;12.70;;
20170;SDS011;10245;51.344;6.620;2023-09-30T09:44:48;20.25;;;11.57;;
20170;SDS011;10245;51.344;6.620;2023-09-30T09:47:11;20.48;;;11.15;;
20170;SDS011;10245;51.344;6.620;2023-09-30T09:49:36;16.23;;;10.07;;
20170;SDS011;10245;51.344;6.620;2023-09-30T09:52:00;16.02;;;9.90;;
20170;SDS011;10245;51.344;6.620;2023-09-30T09:54:25;17.42;;;10.70;;
20170;SDS011;10245;51.344;6.620;2023-09-30T09:56:50;17.13;;;9.95;;
20170;SDS011;10245;51.344;6.620;2023-09-30T09:59:19;17.92;;;8.82;;
20170;SDS011;10245;51.344;6.620;2023-09-30T10:01:45;15.95;;;9.55;;
20170;SDS011;10245;51.344;6.620;2023-09-30T10:04:11;15.98;;;9.57;;
20170;SDS011;10245;51.344;6.620;2023-09-30T10:06:38;16.90;;;8.77;;
20170;SDS011;10245;51.344;6.620;2023-09-30T10:09:04;16.50;;;8.95;;
20170;SDS011;10245;51.344;6.620;2023-09-30T10:11:28;14.65;;;7.75;;
20170;SDS011;10245;51.344;6.620;2023-09-30T10:13:52;12.50;;;7.60;;
20170;SDS011;10245;51.344;6.620;2023-09-30T10:19:10;11.40;;;6.30;;
20170;SDS011;10245;51.344;6.620;2023-09-30T10:21:35;14.02;;;6.25;;
20170;SDS011;10245;51.344;6.620;2023-09-30T10:29:54;14.07;;;6.55;;
20170;SDS011;10245;51.344;6.620;2023-09-30T10:32:19;9.75;;;4.80;;
20170;SDS011;10245;51.344;6.620;2023-09-30T10:34:47;12.70;;;4.82;;
20170;SDS011;10245;51.344;6.620;2023-09-30T10:37:22;9.02;;;4.63;;
20170;SDS011;10245;51.344;6.620;2023-09-30T10:39:54;11.77;;;5.95;;
20170;SDS011;10245;51.344;6.620;2023-09-30T10:50:58;13.82;;;6.32;;
20170;SDS011;10245;51.344;6.620;2023-09-30T10:53:23;9.05;;;5.05;;
20170;SDS011;10245;51.344;6.620;2023-09-30T10:55:50;9.35;;;4.30;;
20170;SDS011;10245;51.344;6.620;2023-09-30T10:58:17;10.48;;;5.60;;
20170;SDS011;10245;51.344;6.620;2023-09-30T11:00:51;9.40;;;5.07;;
20170;SDS011;10245;51.344;6.620;2023-09-30T11:03:16;9.70;;;5.00;;
20170;SDS011;10245;51.344;6.620;2023-09-30T11:05:42;10.98;;;5.30;;
20170;SDS011;10245;51.344;6.620;2023-09-30T11:08:29;10.00;;;5.05;;
20170;SDS011;10245;51.344;6.620;2023-09-30T11:10:56;9.18;;;5.22;;
20170;SDS011;10245;51.344;6.620;2023-09-30T11:13:22;9.90;;;4.78;;
20170;SDS011;10245;51.344;6.620;2023-09-30T11:15:46;10.32;;;4.90;;
20170;SDS011;10245;51.344;6.620;2023-09-30T11:18:12;7.93;;;4.10;;
20170;SDS011;10245;51.344;6.620;2023-09-30T11:20:37;8.65;;;4.43;;
20170;SDS011;10245;51.344;6.620;2023-09-30T11:23:00;8.98;;;4.30;;
20170;SDS011;10245;51.344;6.620;2023-09-30T11:25:23;8.07;;;4.07;;
20170;SDS011;10245;51.344;6.620;2023-09-30T11:27:48;9.38;;;3.83;;
20170;SDS011;10245;51.344;6.620;2023-09-30T11:30:12;8.02;;;3.83;;
20170;SDS011;10245;51.344;6.620;2023-09-30T11:32:36;8.20;;;3.55;;
20170;SDS011;10245;51.344;6.620;2023-09-30T11:35:00;6.32;;;3.30;;
20170;SDS011;10245;51.344;6.620;2023-09-30T11:37:30;6.50;;;3.08;;
20170;SDS011;10245;51.344;6.620;2023-09-30T11:39:55;7.28;;;3.10;;
20170;SDS011;10245;51.344;6.620;2023-09-30T11:42:31;6.88;;;3.00;;
20170;SDS011;10245;51.344;6.620;2023-09-30T11:44:56;8.50;;;3.10;;
20170;SDS011;10245;51.344;6.620;2023-09-30T11:47:27;5.82;;;2.83;;
20170;SDS011;10245;51.344;6.620;2023-09-30T11:49:52;7.85;;;3.13;;
20170;SDS011;10245;51.344;6.620;2023-09-30T11:52:16;7.13;;;3.40;;
20170;SDS011;10245;51.344;6.620;2023-09-30T11:54:49;9.38;;;2.92;;
20170;SDS011;10245;51.344;6.620;2023-09-30T11:57:14;8.10;;;3.55;;
20170;SDS011;10245;51.344;6.620;2023-09-30T11:59:39;8.35;;;3.90;;
20170;SDS011;10245;51.344;6.620;2023-09-30T12:02:05;8.15;;;3.65;;
20170;SDS011;10245;51.344;6.620;2023-09-30T12:04:35;8.43;;;4.05;;
20170;SDS011;10245;51.344;6.620;2023-09-30T12:06:59;6.78;;;3.53;;
20170;SDS011;10245;51.344;6.620;2023-09-30T12:09:23;7.20;;;3.65;;
20170;SDS011;10245;51.344;6.620;2023-09-30T12:11:48;6.60;;;3.72;;
20170;SDS011;10245;51.344;6.620;2023-09-30T12:14:12;6.75;;;3.60;;
20170;SDS011;10245;51.344;6.620;2023-09-30T12:16:35;7.35;;;3.88;;
20170;SDS011;10245;51.344;6.620;2023-09-30T12:19:00;9.57;;;4.63;;
20170;SDS011;10245;51.344;6.620;2023-09-30T12:21:23;12.40;;;4.20;;
20170;SDS011;10245;51.344;6.620;2023-09-30T12:23:46;9.25;;;4.00;;
20170;SDS011;10245;51.344;6.620;2023-09-30T12:26:10;5.47;;;3.50;;
20170;SDS011;10245;51.344;6.620;2023-09-30T12:28:37;8.23;;;3.90;;
20170;SDS011;10245;51.344;6.620;2023-09-30T12:31:01;7.75;;;3.85;;
20170;SDS011;10245;51.344;6.620;2023-09-30T12:33:26;9.60;;;4.00;;
20170;SDS011;10245;51.344;6.620;2023-09-30T12:35:51;11.30;;;4.45;;
20170;SDS011;10245;51.344;6.620;2023-09-30T12:38:14;8.30;;;4.13;;
20170;SDS011;10245;51.344;6.620;2023-09-30T12:40:38;9.52;;;4.78;;
20170;SDS011;10245;51.344;6.620;2023-09-30T12:43:02;8.18;;;3.80;;
20170;SDS011;10245;51.344;6.620;2023-09-30T12:45:27;8.25;;;3.53;;
20170;SDS011;10245;51.344;6.620;2023-09-30T12:47:52;8.65;;;3.70;;
20170;SDS011;10245;51.344;6.620;2023-09-30T12:50:18;10.38;;;3.65;;
20170;SDS011;10245;51.344;6.620;2023-09-30T12:52:42;11.15;;;4.60;;
20170;SDS011;10245;51.344;6.620;2023-09-30T12:55:06;5.60;;;3.40;;
20170;SDS011;10245;51.344;6.620;2023-09-30T12:57:30;9.98;;;4.25;;
20170;SDS011;10245;51.344;6.620;2023-09-30T12:59:53;7.18;;;4.43;;
20170;SDS011;10245;51.344;6.620;2023-09-30T13:02:16;7.63;;;4.15;;
20170;SDS011;10245;51.344;6.620;2023-09-30T13:04:40;8.60;;;4.90;;
20170;SDS011;10245;51.344;6.620;2023-09-30T13:07:05;8.23;;;4.53;;
20170;SDS011;10245;51.344;6.620;2023-09-30T13:09:31;6.25;;;4.25;;
20170;SDS011;10245;51.344;6.620;2023-09-30T13:11:54;7.30;;;4.22;;
20170;SDS011;10245;51.344;6.620;2023-09-30T13:14:21;7.03;;;4.60;;
20170;SDS011;10245;51.344;6.620;2023-09-30T13:16:45;8.10;;;4.47;;
20170;SDS011;10245;51.344;6.620;2023-09-30T13:19:08;7.28;;;4.40;;
20170;SDS011;10245;51.344;6.620;2023-09-30T13:21:31;8.77;;;3.83;;
20170;SDS011;10245;51.344;6.620;2023-09-30T13:23:59;9.07;;;3.92;;
20170;SDS011;10245;51.344;6.620;2023-09-30T13:26:24;6.22;;;3.50;;
20170;SDS011;10245;51.344;6.620;2023-09-30T13:28:47;7.10;;;4.22;;
20170;SDS011;10245;51.344;6.620;2023-09-30T13:31:10;6.45;;;3.65;;
20170;SDS011;10245;51.344;6.620;2023-09-30T13:33:33;9.02;;;4.55;;
20170;SDS011;10245;51.344;6.620;2023-09-30T13:35:57;7.20;;;4.05;;
20170;SDS011;10245;51.344;6.620;2023-09-30T13:38:20;6.95;;;4.32;;
20170;SDS011;10245;51.344;6.620;2023-09-30T13:40:44;9.70;;;4.15;;
20170;SDS011;10245;51.344;6.620;2023-09-30T13:43:09;10.23;;;4.95;;
20170;SDS011;10245;51.344;6.620;2023-09-30T13:45:32;7.60;;;4.45;;
20170;SDS011;10245;51.344;6.620;2023-09-30T13:47:56;6.22;;;4.15;;
20170;SDS011;10245;51.344;6.620;2023-09-30T13:50:20;9.70;;;4.70;;
20170;SDS011;10245;51.344;6.620;2023-09-30T13:52:43;6.68;;;4.03;;
20170;SDS011;10245;51.344;6.620;2023-09-30T13:55:07;9.38;;;4.53;;
20170;SDS011;10245;51.344;6.620;2023-09-30T13:57:31;10.18;;;4.22;;
20170;SDS011;10245;51.344;6.620;2023-09-30T13:59:56;8.68;;;3.97;;
20170;SDS011;10245;51.344;6.620;2023-09-30T14:02:19;9.13;;;4.40;;
20170;SDS011;10245;51.344;6.620;2023-09-30T14:04:43;6.82;;;4.00;;
20170;SDS011;10245;51.344;6.620;2023-09-30T14:07:06;6.60;;;4.15;;
20170;SDS011;10245;51.344;6.620;2023-09-30T14:09:30;6.30;;;4.13;;
20170;SDS011;10245;51.344;6.620;2023-09-30T14:11:57;7.38;;;3.60;;
20170;SDS011;10245;51.344;6.620;2023-09-30T14:14:20;5.38;;;3.45;;
20170;SDS011;10245;51.344;6.620;2023-09-30T14:16:45;9.07;;;4.45;;
20170;SDS011;10245;51.344;6.620;2023-09-30T14:19:09;7.00;;;4.75;;
20170;SDS011;10245;51.344;6.620;2023-09-30T14:21:35;7.45;;;3.83;;
20170;SDS011;10245;51.344;6.620;2023-09-30T14:23:58;6.75;;;3.88;;
20170;SDS011;10245;51.344;6.620;2023-09-30T14:26:23;9.60;;;4.70;;
20170;SDS011;10245;51.344;6.620;2023-09-30T14:28:46;6.80;;;4.28;;
20170;SDS011;10245;51.344;6.620;2023-09-30T14:31:09;9.95;;;4.22;;
20170;SDS011;10245;51.344;6.620;2023-09-30T14:33:34;7.57;;;4.00;;
20170;SDS011;10245;51.344;6.620;2023-09-30T14:35:57;6.13;;;3.75;;
20170;SDS011;10245;51.344;6.620;2023-09-30T14:38:21;8.23;;;4.45;;
20170;SDS011;10245;51.344;6.620;2023-09-30T14:40:44;8.23;;;3.92;;